Time;durP1;ratioP1;P1;durP2;ratioP2;P2;SDS_P1;SDS_P2;PMS_P1;PMS_P2;Temp;Humidity;BMP_temperature;BMP_pressure;BME280_temperature;BME280_humidity;BME280_pressure;Samples;Min_cycle;Max_cycle;Signal;HPM_P1;HPM_P2
2023/06/03 00:01:24;;;;;;;0.77;0.77;;;11.30;92.30;;;;;;4939869;29;20094;-71
2023/06/03 00:03:50;;;;;;;0.40;0.40;;;11.30;92.20;;;;;;4943816;29;20051;-71
2023/06/03 00:06:16;;;;;;;0.40;0.40;;;11.20;92.00;;;;;;4934998;28;20063;-71
2023/06/03 00:08:44;;;;;;;0.30;0.30;;;11.20;91.60;;;;;;4937612;29;20378;-70
2023/06/03 00:11:11;;;;;;;0.68;0.68;;;11.20;91.50;;;;;;4922967;29;20052;-71
2023/06/03 00:13:38;;;;;;;0.40;0.40;;;11.20;91.40;;;;;;4930705;29;20122;-71
2023/06/03 00:16:04;;;;;;;0.30;0.30;;;11.20;91.50;;;;;;4939663;29;20102;-71
2023/06/03 00:18:30;;;;;;;0.52;0.52;;;11.20;91.20;;;;;;4941561;29;20575;-70
2023/06/03 00:20:55;;;;;;;0.30;0.30;;;11.20;91.30;;;;;;4941008;29;20051;-71
2023/06/03 00:23:21;;;;;;;0.40;0.40;;;11.20;91.20;;;;;;4935449;28;20061;-71
2023/06/03 00:25:47;;;;;;;0.40;0.40;;;11.20;91.00;;;;;;4926731;29;20051;-71
2023/06/03 00:28:13;;;;;;;0.30;0.30;;;11.20;90.90;;;;;;4932509;29;20044;-70
2023/06/03 00:30:38;;;;;;;0.40;0.40;;;11.20;91.00;;;;;;4931343;29;20546;-71
2023/06/03 00:33:04;;;;;;;0.43;0.43;;;11.20;90.70;;;;;;4940789;29;20076;-71
2023/06/03 00:35:30;;;;;;;0.52;0.52;;;11.10;90.70;;;;;;4938169;29;20082;-71
2023/06/03 00:37:56;;;;;;;0.40;0.40;;;11.10;90.70;;;;;;4939509;29;20433;-71
2023/06/03 00:40:22;;;;;;;0.30;0.30;;;11.10;90.60;;;;;;4934133;28;20051;-71
2023/06/03 00:42:47;;;;;;;0.30;0.30;;;11.00;90.60;;;;;;4938998;29;20564;-71
2023/06/03 00:45:13;;;;;;;0.20;0.20;;;11.00;91.20;;;;;;4937020;29;20110;-71
2023/06/03 00:47:39;;;;;;;0.40;0.40;;;11.00;91.10;;;;;;4932551;29;20051;-71
2023/06/03 00:50:09;;;;;;;0.38;0.38;;;11.10;91.40;;;;;;4937300;28;20130;-71
2023/06/03 00:52:38;;;;;;;0.32;0.32;;;11.00;91.90;;;;;;4942027;29;20051;-71
2023/06/03 00:55:04;;;;;;;1.48;0.73;;;10.90;92.10;;;;;;4939757;29;20055;-71
2023/06/03 00:57:30;;;;;;;0.30;0.30;;;10.90;92.20;;;;;;4938520;29;20515;-71
2023/06/03 00:59:56;;;;;;;0.40;0.40;;;10.90;92.40;;;;;;4932834;29;20062;-71
2023/06/03 01:02:23;;;;;;;4.30;0.60;;;10.80;92.50;;;;;;4939165;29;20047;-71
2023/06/03 01:04:51;;;;;;;0.50;0.50;;;10.70;92.60;;;;;;4936326;29;20404;-71
2023/06/03 01:07:40;;;;;;;0.30;0.30;;;10.60;92.70;;;;;;4940733;29;20446;-71
2023/06/03 01:10:21;;;;;;;0.30;0.30;;;10.60;92.80;;;;;;4937809;29;20055;-71
2023/06/03 01:12:57;;;;;;;0.40;0.40;;;10.60;93.00;;;;;;4939116;29;20051;-71
2023/06/03 01:15:26;;;;;;;0.30;0.30;;;10.50;93.50;;;;;;4944509;29;20217;-71
2023/06/03 01:17:57;;;;;;;0.40;0.40;;;10.40;93.10;;;;;;4935820;28;20043;-71
2023/06/03 01:20:26;;;;;;;0.30;0.30;;;10.40;93.30;;;;;;4932059;29;20058;-71
2023/06/03 01:22:57;;;;;;;0.30;0.30;;;10.30;93.70;;;;;;4934340;29;20114;-71
2023/06/03 01:25:23;;;;;;;0.73;0.73;;;10.30;93.80;;;;;;4940954;29;20146;-71
2023/06/03 01:27:51;;;;;;;0.30;0.30;;;10.20;93.90;;;;;;4937455;28;20127;-71
2023/06/03 01:30:20;;;;;;;0.45;0.45;;;10.20;94.00;;;;;;4937277;29;20051;-71
2023/06/03 01:32:48;;;;;;;0.52;0.52;;;10.10;94.10;;;;;;4939571;29;20048;-71
2023/06/03 01:35:16;;;;;;;0.43;0.40;;;10.10;94.50;;;;;;4927270;29;20079;-71
2023/06/03 01:37:41;;;;;;;0.30;0.30;;;10.00;94.20;;;;;;4933047;29;20565;-71
2023/06/03 01:40:09;;;;;;;0.40;0.40;;;10.00;94.20;;;;;;4940502;29;20047;-71
2023/06/03 01:42:36;;;;;;;0.50;0.50;;;10.00;94.30;;;;;;4940988;29;20052;-71
2023/06/03 01:45:03;;;;;;;0.40;0.40;;;9.90;94.30;;;;;;4940117;29;20317;-71
2023/06/03 01:47:30;;;;;;;0.40;0.40;;;9.90;94.40;;;;;;4948394;29;20055;-71
2023/06/03 01:49:55;;;;;;;0.40;0.40;;;9.90;94.50;;;;;;4939374;29;20051;-71
2023/06/03 01:52:21;;;;;;;0.38;0.38;;;9.80;94.40;;;;;;4930742;29;20614;-71
2023/06/03 01:54:47;;;;;;;0.40;0.40;;;9.80;94.50;;;;;;4929675;29;20083;-71
2023/06/03 01:57:13;;;;;;;1.20;1.10;;;9.80;94.50;;;;;;4940899;28;20036;-71
2023/06/03 01:59:38;;;;;;;0.50;0.50;;;9.80;94.50;;;;;;4933074;29;20193;-70
2023/06/03 02:02:05;;;;;;;0.40;0.40;;;9.80;94.50;;;;;;4961469;28;20073;-70
2023/06/03 02:04:31;;;;;;;0.30;0.30;;;9.70;94.40;;;;;;4943956;29;20055;-70
2023/06/03 02:06:59;;;;;;;0.30;0.30;;;9.70;94.40;;;;;;4918467;29;20051;-71
2023/06/03 02:09:27;;;;;;;0.47;0.47;;;9.60;94.40;;;;;;4930181;29;20082;-70
2023/06/03 02:11:54;;;;;;;0.47;0.47;;;9.60;94.50;;;;;;4945805;29;20090;-70
2023/06/03 02:14:20;;;;;;;0.40;0.40;;;9.50;94.70;;;;;;4932522;29;20059;-70
2023/06/03 02:16:46;;;;;;;0.77;0.77;;;9.50;94.70;;;;;;4917922;29;20500;-70
2023/06/03 02:19:20;;;;;;;0.40;0.40;;;9.40;94.70;;;;;;4940570;29;20063;-70
2023/06/03 02:21:47;;;;;;;0.38;0.38;;;9.30;94.90;;;;;;4914278;29;20131;-71
2023/06/03 02:24:14;;;;;;;0.70;0.70;;;9.30;95.00;;;;;;4920952;29;20058;-70
2023/06/03 02:26:50;;;;;;;0.40;0.40;;;9.30;95.10;;;;;;4935842;29;20121;-70
2023/06/03 02:29:25;;;;;;;0.30;0.30;;;9.30;95.40;;;;;;4939295;29;20044;-71
2023/06/03 02:31:52;;;;;;;0.40;0.40;;;9.20;95.50;;;;;;4944582;28;20055;-70
2023/06/03 02:34:17;;;;;;;0.30;0.30;;;9.20;95.70;;;;;;4914319;29;20039;-70
2023/06/03 02:36:46;;;;;;;0.50;0.50;;;9.20;95.30;;;;;;4924279;29;20047;-71
2023/06/03 02:39:13;;;;;;;0.35;0.35;;;9.20;95.70;;;;;;4940254;29;20051;-70
2023/06/03 02:41:41;;;;;;;0.40;0.40;;;9.10;95.80;;;;;;4938027;29;20146;-70
2023/06/03 02:44:06;;;;;;;0.40;0.40;;;9.10;95.80;;;;;;4931952;29;20517;-70
2023/06/03 02:46:32;;;;;;;0.50;0.50;;;9.10;96.00;;;;;;4934946;29;20040;-71
2023/06/03 02:49:02;;;;;;;0.40;0.40;;;9.10;95.90;;;;;;4942114;29;20461;-70
2023/06/03 02:51:30;;;;;;;0.40;0.40;;;9.10;96.50;;;;;;4934123;29;20055;-70
2023/06/03 02:53:56;;;;;;;0.50;0.50;;;9.00;96.70;;;;;;4939069;29;20232;-70
2023/06/03 02:56:22;;;;;;;0.43;0.43;;;9.00;96.80;;;;;;4933387;29;20043;-70
2023/06/03 02:58:50;;;;;;;0.40;0.40;;;8.90;97.00;;;;;;4937173;29;20062;-71
2023/06/03 03:01:18;;;;;;;0.60;0.60;;;8.90;96.80;;;;;;4933119;29;20062;-71
2023/06/03 03:03:43;;;;;;;0.30;0.30;;;8.90;96.90;;;;;;4942250;29;20500;-71
2023/06/03 03:06:15;;;;;;;0.63;0.60;;;8.90;97.40;;;;;;4940853;29;20043;-71
2023/06/03 03:08:41;;;;;;;0.38;0.38;;;8.90;97.20;;;;;;4930546;29;20044;-71
2023/06/03 03:11:09;;;;;;;0.30;0.30;;;8.80;97.60;;;;;;4931617;29;20058;-71
2023/06/03 03:13:35;;;;;;;0.43;0.43;;;8.80;97.80;;;;;;4939516;28;20055;-71
2023/06/03 03:16:01;;;;;;;0.40;0.40;;;8.80;98.00;;;;;;4942868;28;20409;-71
2023/06/03 03:18:26;;;;;;;0.60;0.60;;;8.70;98.50;;;;;;4925520;29;20043;-71
2023/06/03 03:20:52;;;;;;;0.43;0.43;;;8.70;98.80;;;;;;4928381;29;20555;-70
2023/06/03 03:23:17;;;;;;;0.40;0.40;;;8.60;99.20;;;;;;4935973;29;20048;-71
2023/06/03 03:25:45;;;;;;;0.30;0.30;;;8.60;99.10;;;;;;4939066;29;20055;-70
2023/06/03 03:28:11;;;;;;;0.45;0.45;;;8.60;99.70;;;;;;4944438;29;20422;-71
2023/06/03 03:30:37;;;;;;;0.40;0.40;;;8.50;99.90;;;;;;4930890;29;20532;-70
2023/06/03 03:33:04;;;;;;;0.30;0.30;;;8.60;99.90;;;;;;4937976;29;20055;-71
2023/06/03 03:35:30;;;;;;;0.30;0.30;;;8.50;99.90;;;;;;4927882;29;20083;-71
2023/06/03 03:38:04;;;;;;;0.40;0.40;;;8.50;99.90;;;;;;4933477;29;20048;-70
2023/06/03 03:40:31;;;;;;;1.65;0.82;;;8.50;99.90;;;;;;4937547;29;20062;-71
2023/06/03 03:42:59;;;;;;;0.30;0.30;;;8.40;99.90;;;;;;4937760;29;20085;-70
2023/06/03 03:45:34;;;;;;;0.77;0.77;;;8.50;99.90;;;;;;4946892;29;20090;-71
2023/06/03 03:48:06;;;;;;;0.30;0.30;;;8.50;99.90;;;;;;4937827;29;20056;-70
2023/06/03 03:50:51;;;;;;;0.60;0.60;;;8.50;99.90;;;;;;4919878;29;20113;-71
2023/06/03 03:53:26;;;;;;;0.30;0.30;;;8.60;99.90;;;;;;4907343;29;20361;-72
2023/06/03 03:55:54;;;;;;;0.40;0.40;;;8.70;99.90;;;;;;4930905;28;20453;-71
2023/06/03 03:58:27;;;;;;;0.40;0.40;;;8.90;99.90;;;;;;4931691;29;20059;-71
2023/06/03 04:00:57;;;;;;;0.40;0.40;;;9.00;99.90;;;;;;4939466;29;20106;-71
2023/06/03 04:03:24;;;;;;;0.57;0.57;;;9.20;99.90;;;;;;4940847;29;20537;-71
2023/06/03 04:05:50;;;;;;;0.50;0.50;;;9.40;99.90;;;;;;4940623;29;20485;-71
2023/06/03 04:08:45;;;;;;;0.40;0.40;;;9.40;99.90;;;;;;4931736;28;20083;-71
2023/06/03 04:11:28;;;;;;;0.50;0.50;;;9.60;99.70;;;;;;4928313;29;20677;-71
2023/06/03 04:13:55;;;;;;;0.63;0.63;;;9.80;99.70;;;;;;4934317;29;20042;-72
2023/06/03 04:16:53;;;;;;;0.40;0.40;;;9.90;99.90;;;;;;4908538;29;20059;-71
2023/06/03 04:19:30;;;;;;;1.30;1.20;;;10.30;99.70;;;;;;4929810;29;20090;-71
2023/06/03 04:21:57;;;;;;;0.40;0.40;;;10.90;98.80;;;;;;4937940;29;20431;-70
2023/06/03 04:24:24;;;;;;;0.30;0.30;;;11.10;97.90;;;;;;4937377;29;20389;-70
2023/06/03 04:26:51;;;;;;;0.57;0.57;;;10.90;97.70;;;;;;4931943;29;20090;-71
2023/06/03 04:29:17;;;;;;;0.60;0.60;;;10.60;97.90;;;;;;4933622;29;20042;-70
2023/06/03 04:31:42;;;;;;;0.40;0.40;;;10.40;98.40;;;;;;4932476;29;20047;-71
2023/06/03 04:34:08;;;;;;;0.90;0.90;;;10.20;98.90;;;;;;4932522;29;20130;-71
2023/06/03 04:36:34;;;;;;;0.43;0.43;;;10.10;99.30;;;;;;4940592;29;20405;-71
2023/06/03 04:38:59;;;;;;;0.40;0.40;;;10.10;99.90;;;;;;4942383;29;20043;-70
2023/06/03 04:41:28;;;;;;;0.30;0.30;;;10.10;99.90;;;;;;4940194;29;20115;-70
2023/06/03 04:43:56;;;;;;;0.40;0.40;;;10.10;99.90;;;;;;4942038;28;20070;-70
2023/06/03 04:46:29;;;;;;;;;;;10.20;99.90;;;;;;4929852;29;20102;-70
2023/06/03 04:48:58;;;;;;;0.47;0.47;;;10.40;99.90;;;;;;4931050;29;19930;-70
2023/06/03 04:51:27;;;;;;;0.47;0.47;;;10.40;99.90;;;;;;4942225;29;20667;-70
2023/06/03 04:53:57;;;;;;;0.38;0.38;;;10.30;99.90;;;;;;4942276;29;20052;-70
2023/06/03 04:56:24;;;;;;;0.30;0.30;;;10.50;99.90;;;;;;4930234;29;20058;-71
2023/06/03 04:58:55;;;;;;;0.63;0.63;;;10.70;99.90;;;;;;4930040;29;20055;-70
2023/06/03 05:01:25;;;;;;;0.52;0.52;;;10.90;99.70;;;;;;4939550;29;20136;-70
2023/06/03 05:03:52;;;;;;;0.50;0.50;;;11.00;99.20;;;;;;4932516;29;20044;-70
2023/06/03 05:06:19;;;;;;;0.75;0.75;;;11.00;99.00;;;;;;4939025;29;20138;-70
2023/06/03 05:08:48;;;;;;;0.60;0.60;;;10.90;98.80;;;;;;4937942;29;20050;-70
2023/06/03 05:11:15;;;;;;;1.10;1.10;;;10.90;99.10;;;;;;4941104;29;20511;-70
2023/06/03 05:13:41;;;;;;;1.15;1.10;;;10.90;98.30;;;;;;4936798;29;20614;-70
2023/06/03 05:16:06;;;;;;;2.30;1.38;;;11.00;97.70;;;;;;4941541;29;20155;-71
2023/06/03 05:18:32;;;;;;;2.50;2.08;;;11.00;97.70;;;;;;4933391;29;20640;-70
2023/06/03 05:20:58;;;;;;;1.00;1.00;;;11.10;97.60;;;;;;4932302;29;20315;-71
2023/06/03 05:23:23;;;;;;;0.47;0.47;;;11.10;97.30;;;;;;4936374;29;20039;-71
2023/06/03 05:25:49;;;;;;;0.50;0.50;;;11.20;97.50;;;;;;4932455;28;20051;-70
2023/06/03 05:28:14;;;;;;;0.60;0.60;;;11.20;97.90;;;;;;4938995;29;20516;-70
2023/06/03 05:30:40;;;;;;;0.50;0.50;;;11.30;97.50;;;;;;4933211;29;20060;-71
2023/06/03 05:33:06;;;;;;;1.10;1.10;;;11.40;97.80;;;;;;4944242;29;20055;-71
2023/06/03 05:35:31;;;;;;;1.20;1.08;;;11.40;97.60;;;;;;4941328;28;20053;-70
2023/06/03 05:37:57;;;;;;;0.90;0.90;;;11.60;97.80;;;;;;4927525;29;20052;-70
2023/06/03 05:40:23;;;;;;;0.80;0.80;;;11.90;97.80;;;;;;4931944;29;20051;-70
2023/06/03 05:42:48;;;;;;;0.60;0.60;;;12.30;97.10;;;;;;4941118;29;20043;-70
2023/06/03 05:45:15;;;;;;;0.40;0.40;;;12.70;95.00;;;;;;4944016;29;20181;-70
2023/06/03 05:47:40;;;;;;;1.58;1.25;;;12.90;93.70;;;;;;4938969;29;20048;-70
2023/06/03 05:50:06;;;;;;;1.52;1.42;;;13.00;93.10;;;;;;4944814;29;20448;-70
2023/06/03 05:52:32;;;;;;;2.88;1.02;;;13.00;93.30;;;;;;4941727;29;20107;-70
2023/06/03 05:54:58;;;;;;;0.63;0.63;;;12.80;93.60;;;;;;4928051;29;20616;-70
2023/06/03 05:57:24;;;;;;;0.98;0.98;;;12.80;92.90;;;;;;4930809;29;20523;-70
2023/06/03 05:59:52;;;;;;;1.65;0.70;;;12.80;92.80;;;;;;4940628;29;20087;-70
2023/06/03 06:02:19;;;;;;;0.82;0.82;;;12.80;93.20;;;;;;4942123;29;20074;-71
2023/06/03 06:04:44;;;;;;;0.85;0.85;;;12.80;93.00;;;;;;4943290;29;20548;-71
2023/06/03 06:07:10;;;;;;;1.55;0.60;;;12.90;92.50;;;;;;4939949;29;20055;-70
2023/06/03 06:09:36;;;;;;;0.40;0.40;;;13.00;92.40;;;;;;4941778;29;20047;-70
2023/06/03 06:12:01;;;;;;;0.73;0.73;;;13.10;91.90;;;;;;4929110;29;20078;-70
2023/06/03 06:14:27;;;;;;;1.35;0.98;;;13.20;91.40;;;;;;4936088;29;20110;-70
2023/06/03 06:16:53;;;;;;;1.13;1.02;;;13.20;91.50;;;;;;4940554;29;20050;-70
2023/06/03 06:19:19;;;;;;;1.02;1.02;;;13.20;91.50;;;;;;4947515;28;20074;-70
2023/06/03 06:21:47;;;;;;;2.40;1.15;;;13.20;91.30;;;;;;4936821;29;20055;-71
2023/06/03 06:24:13;;;;;;;0.98;0.98;;;13.30;92.00;;;;;;4922951;29;20048;-70
2023/06/03 06:26:40;;;;;;;0.40;0.40;;;13.40;91.70;;;;;;4929410;29;20047;-70
2023/06/03 06:29:06;;;;;;;1.30;1.08;;;13.50;91.80;;;;;;4927974;29;20070;-70
2023/06/03 06:31:32;;;;;;;0.65;0.65;;;13.60;90.30;;;;;;4930544;29;20493;-70
2023/06/03 06:33:59;;;;;;;0.68;0.68;;;13.80;90.60;;;;;;4921856;29;20059;-70
2023/06/03 06:36:30;;;;;;;0.60;0.60;;;13.90;90.70;;;;;;4935800;29;20542;-71
2023/06/03 06:38:57;;;;;;;0.85;0.85;;;13.90;90.40;;;;;;4934312;29;20062;-71
2023/06/03 06:41:25;;;;;;;1.95;0.75;;;14.10;87.30;;;;;;4944581;29;20050;-70
2023/06/03 06:43:52;;;;;;;0.80;0.80;;;14.20;86.70;;;;;;4930318;29;20062;-70
2023/06/03 06:46:18;;;;;;;1.95;1.05;;;14.40;84.70;;;;;;4930826;29;20417;-70
2023/06/03 06:48:44;;;;;;;0.50;0.50;;;14.60;84.40;;;;;;4926768;29;20044;-70
2023/06/03 06:51:10;;;;;;;1.88;1.50;;;14.80;83.50;;;;;;4931742;29;20060;-70
2023/06/03 06:53:35;;;;;;;0.50;0.50;;;14.90;81.40;;;;;;4936583;29;20044;-70
2023/06/03 06:56:08;;;;;;;1.35;1.25;;;14.90;79.60;;;;;;4929484;29;20056;-70
2023/06/03 06:58:37;;;;;;;1.00;0.95;;;15.00;78.90;;;;;;4939723;29;20052;-70
2023/06/03 07:01:07;;;;;;;0.75;0.75;;;15.00;80.10;;;;;;4928536;29;20055;-70
2023/06/03 07:03:34;;;;;;;1.05;0.95;;;15.00;80.20;;;;;;4934522;29;20047;-70
2023/06/03 07:06:00;;;;;;;1.75;1.08;;;15.10;79.30;;;;;;4935054;28;20058;-70
2023/06/03 07:08:26;;;;;;;1.48;1.38;;;15.10;77.10;;;;;;4927306;29;20139;-70
2023/06/03 07:10:55;;;;;;;1.08;1.08;;;15.10;76.40;;;;;;4938264;29;20047;-70
2023/06/03 07:13:21;;;;;;;0.70;0.60;;;15.40;76.60;;;;;;4933994;29;20051;-70
2023/06/03 07:15:47;;;;;;;0.98;0.85;;;15.60;75.10;;;;;;4932634;29;20044;-70
2023/06/03 07:18:12;;;;;;;1.42;1.05;;;15.80;74.00;;;;;;4937705;29;20126;-70
2023/06/03 07:20:43;;;;;;;0.70;0.70;;;16.00;73.30;;;;;;4945902;29;20536;-70
2023/06/03 07:23:10;;;;;;;0.90;0.90;;;16.00;73.00;;;;;;4931335;29;20052;-70
2023/06/03 07:25:44;;;;;;;1.67;1.58;;;15.90;71.60;;;;;;4930920;29;20385;-70
2023/06/03 07:28:15;;;;;;;0.40;0.40;;;15.70;71.70;;;;;;4929474;29;20055;-70
2023/06/03 07:30:43;;;;;;;1.13;0.68;;;15.50;72.30;;;;;;4928728;29;20051;-70
2023/06/03 07:33:11;;;;;;;1.17;0.70;;;15.40;72.70;;;;;;4943334;29;20079;-71
2023/06/03 07:35:37;;;;;;;1.80;1.10;;;15.60;72.20;;;;;;4933126;28;20417;-71
2023/06/03 07:38:06;;;;;;;2.90;0.95;;;16.00;71.10;;;;;;4935103;29;20051;-71
2023/06/03 07:40:42;;;;;;;5.60;1.33;;;16.30;71.30;;;;;;4933488;29;20044;-69
2023/06/03 07:43:12;;;;;;;1.20;1.20;;;16.60;69.10;;;;;;4950703;28;20418;-71
2023/06/03 07:45:38;;;;;;;1.50;1.38;;;16.80;68.00;;;;;;4931740;29;20054;-71
2023/06/03 07:48:07;;;;;;;0.73;0.73;;;16.90;68.00;;;;;;4928128;29;20059;-71
2023/06/03 07:50:33;;;;;;;0.70;0.70;;;17.10;67.70;;;;;;4937627;29;20050;-69
2023/06/03 07:53:01;;;;;;;0.50;0.50;;;17.20;66.60;;;;;;4933517;29;20056;-71
2023/06/03 07:55:45;;;;;;;2.00;1.80;;;17.40;66.30;;;;;;4944620;29;20047;-71
2023/06/03 07:58:12;;;;;;;0.40;0.40;;;17.50;62.90;;;;;;4937240;29;20118;-71
2023/06/03 08:00:42;;;;;;;0.73;0.73;;;17.60;64.70;;;;;;4938873;28;20062;-69
2023/06/03 08:03:08;;;;;;;0.65;0.65;;;17.70;64.90;;;;;;4938965;29;20130;-68
2023/06/03 08:05:35;;;;;;;0.63;0.63;;;17.90;63.00;;;;;;4927042;29;20146;-69
2023/06/03 08:08:05;;;;;;;1.77;1.15;;;18.00;63.70;;;;;;4919649;29;20215;-72
2023/06/03 08:10:32;;;;;;;0.90;0.90;;;18.20;64.00;;;;;;4936830;29;20044;-69
2023/06/03 08:12:58;;;;;;;1.65;0.65;;;18.30;62.80;;;;;;4936857;28;20144;-71
2023/06/03 08:15:31;;;;;;;1.00;0.93;;;18.20;59.90;;;;;;4935229;29;20409;-69
2023/06/03 08:17:57;;;;;;;0.40;0.40;;;18.30;60.00;;;;;;4938343;29;20229;-69
2023/06/03 08:20:27;;;;;;;1.17;1.17;;;18.20;58.80;;;;;;4942388;29;20059;-69
2023/06/03 08:22:55;;;;;;;0.45;0.45;;;18.20;58.40;;;;;;4938858;29;20046;-69
2023/06/03 08:25:21;;;;;;;0.38;0.38;;;18.30;58.50;;;;;;4940542;29;20090;-72
2023/06/03 08:27:48;;;;;;;1.83;1.63;;;18.40;58.90;;;;;;4939524;29;20043;-71
2023/06/03 08:30:14;;;;;;;0.50;0.50;;;18.40;57.30;;;;;;4929285;28;20044;-69
2023/06/03 08:32:41;;;;;;;0.73;0.73;;;18.70;59.40;;;;;;4939787;29;20400;-69
2023/06/03 08:35:11;;;;;;;1.67;1.02;;;18.80;57.50;;;;;;4936023;29;20051;-69
2023/06/03 08:37:37;;;;;;;0.40;0.40;;;19.00;57.60;;;;;;4934866;29;20055;-68
2023/06/03 08:40:13;;;;;;;0.50;0.50;;;19.10;58.30;;;;;;4942640;28;20051;-69
2023/06/03 08:42:42;;;;;;;0.80;0.77;;;19.20;56.40;;;;;;4937468;29;20094;-69
2023/06/03 08:45:09;;;;;;;0.57;0.57;;;19.30;57.50;;;;;;4932923;29;20047;-69
2023/06/03 08:47:57;;;;;;;0.57;0.57;;;19.50;55.50;;;;;;4932817;29;20052;-69
2023/06/03 08:50:24;;;;;;;0.57;0.57;;;19.50;55.10;;;;;;4936036;29;20070;-69
2023/06/03 08:52:52;;;;;;;5.30;3.30;;;19.50;55.60;;;;;;4932255;29;20047;-69
2023/06/03 08:55:19;;;;;;;1.20;1.10;;;19.60;56.00;;;;;;4939217;29;20338;-71
2023/06/03 08:58:08;;;;;;;1.33;1.27;;;19.70;56.10;;;;;;4929392;29;20378;-69
2023/06/03 09:00:34;;;;;;;0.63;0.63;;;19.60;53.10;;;;;;4937109;29;20056;-70
2023/06/03 09:03:01;;;;;;;0.45;0.45;;;19.60;52.70;;;;;;4938244;29;20438;-69
2023/06/03 09:05:27;;;;;;;1.00;1.00;;;19.60;52.70;;;;;;4933095;29;20166;-70
2023/06/03 09:07:53;;;;;;;0.60;0.60;;;19.30;52.60;;;;;;4930226;29;20173;-69
2023/06/03 09:10:25;;;;;;;0.30;0.30;;;19.20;52.00;;;;;;4936960;29;20051;-70
2023/06/03 09:12:55;;;;;;;0.30;0.30;;;19.10;52.80;;;;;;4941586;29;20211;-69
2023/06/03 09:15:22;;;;;;;1.38;1.25;;;18.90;52.50;;;;;;4930393;29;20496;-69
2023/06/03 09:17:48;;;;;;;2.83;1.25;;;18.70;53.00;;;;;;4940387;29;20082;-68
2023/06/03 09:20:14;;;;;;;0.57;0.57;;;18.50;54.20;;;;;;4935539;29;20079;-69
2023/06/03 09:22:46;;;;;;;0.57;0.57;;;18.20;54.10;;;;;;4944071;29;20138;-69
2023/06/03 09:25:13;;;;;;;1.13;1.13;;;18.00;54.20;;;;;;4933424;29;20048;-69
2023/06/03 09:27:40;;;;;;;0.95;0.95;;;18.00;54.70;;;;;;4944246;29;20048;-69
2023/06/03 09:30:06;;;;;;;0.63;0.63;;;17.80;55.30;;;;;;4944475;29;20057;-71
2023/06/03 09:32:36;;;;;;;1.65;1.55;;;17.80;56.90;;;;;;4943915;29;20035;-69
2023/06/03 09:35:05;;;;;;;1.05;1.05;;;18.20;56.50;;;;;;4943057;28;20047;-68
2023/06/03 09:37:32;;;;;;;0.50;0.50;;;18.50;56.10;;;;;;4939390;29;20054;-69
2023/06/03 09:39:57;;;;;;;3.40;0.90;;;18.80;54.60;;;;;;4926304;29;20051;-69
2023/06/03 09:42:38;;;;;;;0.70;0.70;;;19.20;53.10;;;;;;4940708;29;20047;-69
2023/06/03 09:45:05;;;;;;;3.05;1.40;;;19.30;53.00;;;;;;4929549;29;20126;-69
2023/06/03 09:47:35;;;;;;;2.78;1.08;;;19.40;53.10;;;;;;4944719;29;20043;-69
2023/06/03 09:50:08;;;;;;;0.40;0.40;;;19.40;53.00;;;;;;4936316;29;20059;-69
2023/06/03 09:52:35;;;;;;;0.80;0.60;;;19.70;54.00;;;;;;4934232;29;20090;-69
2023/06/03 09:55:07;;;;;;;0.47;0.47;;;19.70;53.30;;;;;;4929302;29;20524;-69
2023/06/03 09:57:34;;;;;;;1.55;1.05;;;19.80;52.70;;;;;;4929644;29;20078;-73
2023/06/03 10:00:04;;;;;;;0.40;0.40;;;19.80;51.90;;;;;;4930347;29;20055;-72
2023/06/03 10:02:30;;;;;;;0.50;0.50;;;19.80;51.60;;;;;;4939432;29;20051;-72
2023/06/03 10:04:57;;;;;;;0.30;0.30;;;19.80;51.20;;;;;;4937186;29;20119;-70
2023/06/03 10:07:22;;;;;;;0.50;0.50;;;20.00;53.00;;;;;;4932672;29;20590;-70
2023/06/03 10:09:49;;;;;;;2.63;1.55;;;19.90;50.80;;;;;;4932945;29;20127;-70
2023/06/03 10:12:27;;;;;;;0.43;0.43;;;19.90;50.90;;;;;;4938814;29;20075;-70
2023/06/03 10:14:55;;;;;;;0.40;0.40;;;19.90;50.90;;;;;;4938492;29;20063;-72
2023/06/03 10:17:21;;;;;;;6.82;1.08;;;20.10;51.50;;;;;;4939261;29;20051;-71
2023/06/03 10:19:48;;;;;;;1.38;1.27;;;20.20;50.70;;;;;;4939091;29;20126;-71
2023/06/03 10:22:19;;;;;;;0.68;0.68;;;20.20;51.10;;;;;;4932537;28;20086;-70
2023/06/03 10:24:47;;;;;;;0.80;0.80;;;20.00;50.60;;;;;;4938188;29;20523;-70
2023/06/03 10:27:15;;;;;;;0.57;0.57;;;20.00;50.50;;;;;;4935039;29;20047;-70
2023/06/03 10:29:41;;;;;;;0.43;0.43;;;19.90;50.40;;;;;;4940619;29;20052;-70
2023/06/03 10:32:08;;;;;;;0.50;0.50;;;20.00;50.60;;;;;;4931796;29;20329;-70
2023/06/03 10:34:41;;;;;;;0.50;0.50;;;19.90;51.30;;;;;;4935926;29;20070;-70
2023/06/03 10:37:09;;;;;;;0.50;0.50;;;20.20;52.30;;;;;;4922122;29;20090;-70
2023/06/03 10:39:34;;;;;;;0.50;0.50;;;20.40;51.50;;;;;;4939864;29;20087;-70
2023/06/03 10:42:03;;;;;;;0.70;0.63;;;20.40;51.40;;;;;;4933195;29;20492;-70
2023/06/03 10:44:29;;;;;;;0.77;0.55;;;20.40;51.50;;;;;;4938944;29;20489;-70
2023/06/03 10:47:19;;;;;;;1.00;1.00;;;20.40;50.90;;;;;;4939777;29;20106;-70
2023/06/03 10:49:53;;;;;;;0.35;0.35;;;20.40;51.30;;;;;;4929325;29;20453;-70
2023/06/03 10:52:49;;;;;;;1.27;1.23;;;20.20;51.70;;;;;;4937067;29;20058;-70
2023/06/03 10:55:40;;;;;;;0.75;0.75;;;20.20;50.70;;;;;;4941210;28;20428;-70
2023/06/03 10:58:13;;;;;;;0.90;0.60;;;20.20;50.50;;;;;;4943460;29;20066;-70
2023/06/03 11:01:01;;;;;;;0.40;0.40;;;20.20;50.10;;;;;;4937378;28;20154;-70
2023/06/03 11:03:29;;;;;;;1.55;1.45;;;20.30;50.60;;;;;;4930517;29;20429;-70
2023/06/03 11:06:26;;;;;;;0.52;0.52;;;20.30;50.90;;;;;;4936974;29;20055;-70
2023/06/03 11:09:07;;;;;;;1.00;0.95;;;20.40;50.30;;;;;;4927025;29;20158;-70
2023/06/03 11:11:39;;;;;;;1.00;0.90;;;20.50;50.20;;;;;;4932813;29;20102;-69
2023/06/03 11:14:06;;;;;;;2.28;1.08;;;20.50;51.00;;;;;;4940709;29;20412;-70
2023/06/03 11:17:08;;;;;;;0.57;0.57;;;20.70;50.20;;;;;;4933343;29;20043;-70
2023/06/03 11:19:46;;;;;;;0.88;0.88;;;20.80;50.70;;;;;;4934330;29;20519;-70
2023/06/03 11:22:13;;;;;;;0.40;0.40;;;20.70;48.70;;;;;;4931950;28;20051;-70
2023/06/03 11:24:39;;;;;;;1.02;0.80;;;20.70;47.00;;;;;;4939531;29;20044;-70
2023/06/03 11:27:13;;;;;;;0.40;0.30;;;20.60;48.90;;;;;;4935797;29;20066;-70
2023/06/03 11:32:14;;;;;;;4.57;1.10;;;20.80;49.40;;;;;;4937339;29;20047;-70
2023/06/03 11:34:40;;;;;;;0.68;0.68;;;20.80;49.50;;;;;;4939439;29;20043;-70
2023/06/03 11:37:06;;;;;;;0.45;0.45;;;20.90;48.80;;;;;;4938902;28;20044;-71
2023/06/03 11:40:05;;;;;;;0.57;0.57;;;21.00;49.10;;;;;;4931920;29;20389;-70
2023/06/03 11:42:53;;;;;;;0.43;0.43;;;21.20;49.60;;;;;;4936936;29;20544;-70
2023/06/03 11:45:19;;;;;;;1.67;1.58;;;21.40;49.60;;;;;;4923814;29;20062;-69
2023/06/03 11:47:55;;;;;;;0.95;0.95;;;21.10;49.50;;;;;;4936952;29;20047;-70
2023/06/03 11:50:26;;;;;;;0.52;0.52;;;21.00;49.20;;;;;;4930922;29;20426;-70
2023/06/03 11:52:52;;;;;;;6.60;0.85;;;21.10;49.00;;;;;;4939209;29;20397;-69
2023/06/03 11:55:25;;;;;;;4.22;1.90;;;21.10;49.20;;;;;;4942629;29;20466;-70
2023/06/03 11:57:51;;;;;;;0.70;0.70;;;21.10;49.10;;;;;;4929558;29;20383;-70
2023/06/03 12:00:20;;;;;;;0.73;0.73;;;21.00;48.70;;;;;;4931400;29;20067;-68
2023/06/03 12:02:46;;;;;;;0.40;0.40;;;21.10;49.20;;;;;;4942528;29;20050;-70
2023/06/03 12:05:12;;;;;;;1.38;1.27;;;21.20;49.40;;;;;;4940110;29;20070;-70
2023/06/03 12:07:38;;;;;;;0.40;0.40;;;21.20;46.80;;;;;;4935906;28;20131;-70
2023/06/03 12:10:05;;;;;;;0.57;0.50;;;21.30;46.90;;;;;;4940245;29;20083;-70
2023/06/03 12:12:30;;;;;;;0.65;0.65;;;21.50;46.50;;;;;;4941428;29;20133;-69
2023/06/03 12:15:04;;;;;;;0.40;0.40;;;21.70;47.70;;;;;;4930408;29;20429;-70
2023/06/03 12:17:30;;;;;;;1.15;1.15;;;21.60;48.90;;;;;;4932497;29;20052;-70
2023/06/03 12:19:59;;;;;;;1.17;0.88;;;21.40;48.20;;;;;;4941820;28;20060;-71
2023/06/03 12:22:26;;;;;;;0.60;0.60;;;21.40;48.00;;;;;;4938247;29;20048;-70
2023/06/03 12:24:53;;;;;;;3.33;2.10;;;21.50;49.10;;;;;;4944123;29;20490;-70
2023/06/03 12:27:24;;;;;;;1.60;1.50;;;21.50;48.20;;;;;;4929827;29;20052;-69
2023/06/03 12:29:55;;;;;;;0.98;0.93;;;21.60;48.00;;;;;;4929935;29;20055;-70
2023/06/03 12:32:22;;;;;;;0.93;0.93;;;21.60;48.00;;;;;;4935877;29;20067;-70
2023/06/03 12:34:49;;;;;;;0.82;0.82;;;21.90;48.30;;;;;;4932805;28;20154;-69
2023/06/03 12:37:27;;;;;;;4.22;1.50;;;21.90;47.40;;;;;;4928820;29;20047;-69
2023/06/03 12:39:52;;;;;;;0.60;0.60;;;21.70;47.40;;;;;;4931237;29;20055;-71
2023/06/03 12:42:37;;;;;;;0.47;0.47;;;21.60;46.40;;;;;;4935407;29;20497;-70
2023/06/03 12:45:03;;;;;;;0.60;0.60;;;21.40;47.70;;;;;;4923304;29;20056;-71
2023/06/03 12:47:29;;;;;;;0.88;0.88;;;21.30;47.10;;;;;;4928494;29;20090;-70
2023/06/03 12:50:05;;;;;;;0.95;0.95;;;21.40;47.60;;;;;;4940495;29;20058;-70
2023/06/03 12:52:34;;;;;;;0.50;0.50;;;21.40;47.50;;;;;;4943628;28;20052;-71
2023/06/03 12:55:01;;;;;;;2.47;0.82;;;21.30;46.70;;;;;;4924538;29;20052;-71
2023/06/03 12:57:28;;;;;;;1.17;1.17;;;21.30;47.30;;;;;;4931065;29;20588;-70
2023/06/03 13:00:12;;;;;;;0.90;0.90;;;21.50;47.60;;;;;;4941296;29;20181;-70